Time;durP1;ratioP1;P1;durP2;ratioP2;P2;SDS_P1;SDS_P2;PMS_P1;PMS_P2;Temp;Humidity;BMP_temperature;BMP_pressure;BME280_temperature;BME280_humidity;BME280_pressure;Samples;Min_cycle;Max_cycle;Signal;HPM_P1;HPM_P2
2022/06/29 00:02:19;;;;;;;2.80;1.00;;;22.00;98.60;;;;;;6211509;28;20050;-81
2022/06/29 00:05:24;;;;;;;3.42;1.10;;;21.90;98.70;;;;;;6210331;28;20058;-80
2022/06/29 00:08:26;;;;;;;3.55;0.80;;;21.90;98.70;;;;;;6209899;28;20057;-81
2022/06/29 00:11:28;;;;;;;2.95;0.90;;;21.90;98.80;;;;;;6208342;28;20418;-80
2022/06/29 00:14:29;;;;;;;2.80;0.95;;;21.80;98.90;;;;;;6210655;28;20042;-80
2022/06/29 00:17:32;;;;;;;5.68;0.90;;;21.80;98.90;;;;;;6210835;28;20057;-80
2022/06/29 00:20:35;;;;;;;1.63;0.80;;;21.70;99.10;;;;;;6209007;28;20046;-81
2022/06/29 00:23:37;;;;;;;1.45;0.77;;;21.60;99.20;;;;;;6205865;28;20054;-80
2022/06/29 00:26:39;;;;;;;2.25;1.00;;;21.50;99.30;;;;;;6208840;28;20061;-80
2022/06/29 00:29:41;;;;;;;2.58;1.08;;;21.40;99.40;;;;;;6209909;28;20535;-80
2022/06/29 00:32:42;;;;;;;2.25;0.82;;;21.30;99.40;;;;;;6208885;28;20050;-79
2022/06/29 00:35:46;;;;;;;3.30;1.20;;;21.30;99.50;;;;;;6204445;28;20061;-79
2022/06/29 00:38:47;;;;;;;4.20;1.02;;;21.20;99.40;;;;;;6193684;28;20053;-80
2022/06/29 00:41:49;;;;;;;3.13;1.02;;;21.20;99.50;;;;;;6207201;28;20052;-81
2022/06/29 00:44:51;;;;;;;1.02;0.80;;;21.20;99.50;;;;;;6210479;28;20651;-81
2022/06/29 00:47:53;;;;;;;2.15;0.88;;;21.20;99.50;;;;;;6209705;28;20046;-80
2022/06/29 00:50:57;;;;;;;7.90;1.05;;;21.20;99.50;;;;;;6210856;28;20050;-79
2022/06/29 00:54:00;;;;;;;7.03;1.30;;;21.20;99.50;;;;;;6211481;28;20057;-80
2022/06/29 00:57:06;;;;;;;1.98;0.98;;;21.20;99.50;;;;;;6212497;28;20047;-81
2022/06/29 01:00:10;;;;;;;3.95;1.25;;;21.20;99.50;;;;;;6212278;28;20050;-80
2022/06/29 01:03:11;;;;;;;4.30;1.08;;;21.20;99.50;;;;;;6211319;28;20058;-80
2022/06/29 01:06:15;;;;;;;2.80;1.33;;;21.20;99.30;;;;;;6211616;28;20137;-80
2022/06/29 01:09:16;;;;;;;3.85;0.95;;;21.20;99.50;;;;;;6212205;28;20054;-81
2022/06/29 01:12:18;;;;;;;1.52;1.00;;;21.20;99.50;;;;;;6211039;28;20046;-81
2022/06/29 01:15:20;;;;;;;2.72;1.15;;;21.30;99.50;;;;;;6212292;28;20479;-81
2022/06/29 01:18:22;;;;;;;1.38;1.08;;;21.30;99.50;;;;;;6212895;28;20043;-81
2022/06/29 01:21:30;;;;;;;2.85;0.90;;;21.40;99.50;;;;;;6213683;28;20050;-81
2022/06/29 01:24:33;;;;;;;4.43;1.17;;;21.40;99.60;;;;;;6212219;28;20521;-81
2022/06/29 01:27:35;;;;;;;2.53;0.75;;;21.50;99.60;;;;;;6214280;28;20052;-81
2022/06/29 01:30:37;;;;;;;10.15;2.75;;;21.40;99.60;;;;;;6212952;28;20056;-81
2022/06/29 01:33:39;;;;;;;1.35;0.80;;;21.50;99.50;;;;;;6214506;28;20529;-80
2022/06/29 01:36:40;;;;;;;2.72;1.00;;;21.50;99.50;;;;;;6213724;28;20054;-81
2022/06/29 01:39:44;;;;;;;5.05;0.98;;;21.60;99.40;;;;;;6213778;28;20042;-81
2022/06/29 01:42:45;;;;;;;2.83;1.23;;;21.60;99.40;;;;;;6214698;28;20202;-81
2022/06/29 01:45:47;;;;;;;2.85;0.93;;;21.60;99.40;;;;;;6215345;28;20045;-81
2022/06/29 01:48:49;;;;;;;2.97;0.75;;;21.60;99.40;;;;;;6212499;28;20046;-80
2022/06/29 01:51:50;;;;;;;1.55;0.90;;;21.60;99.40;;;;;;6214363;28;20125;-81
2022/06/29 01:54:53;;;;;;;1.75;1.20;;;21.60;99.40;;;;;;6214603;28;20046;-81
2022/06/29 01:57:55;;;;;;;2.22;1.10;;;21.60;99.40;;;;;;6215176;28;20057;-80
2022/06/29 02:00:57;;;;;;;10.45;1.02;;;21.60;99.40;;;;;;6218167;28;20097;-79
2022/06/29 02:03:59;;;;;;;2.30;1.02;;;21.50;99.40;;;;;;6212506;28;20070;-81
2022/06/29 02:07:01;;;;;;;6.90;0.93;;;21.50;99.50;;;;;;6213328;28;20050;-80
2022/06/29 02:10:04;;;;;;;7.22;1.42;;;21.60;99.50;;;;;;6215299;28;20149;-82
2022/06/29 02:13:06;;;;;;;5.65;1.17;;;21.70;99.40;;;;;;6212473;28;20046;-81
2022/06/29 02:16:08;;;;;;;1.65;1.10;;;21.60;99.50;;;;;;6212522;28;20050;-80
2022/06/29 02:19:09;;;;;;;2.72;1.13;;;21.60;99.60;;;;;;6214343;28;20061;-81
2022/06/29 02:22:11;;;;;;;3.05;1.17;;;21.60;99.70;;;;;;6212060;28;20056;-80
2022/06/29 02:25:14;;;;;;;1.63;0.90;;;21.60;99.50;;;;;;6214505;28;20053;-81
2022/06/29 02:28:16;;;;;;;1.48;0.90;;;21.60;99.60;;;;;;6213405;28;20061;-80
2022/06/29 02:34:46;;;;;;;3.80;0.98;;;21.70;99.60;;;;;;6212738;28;20042;-80
2022/06/29 02:37:48;;;;;;;6.18;1.00;;;21.70;99.70;;;;;;6210099;28;20396;-81
2022/06/29 02:40:51;;;;;;;2.28;0.82;;;21.70;99.90;;;;;;6211537;28;20049;-80
2022/06/29 02:43:53;;;;;;;3.90;0.85;;;21.70;99.60;;;;;;6211605;28;20046;-79
2022/06/29 02:46:55;;;;;;;3.45;0.82;;;21.80;99.70;;;;;;6213147;28;20057;-80
2022/06/29 02:49:57;;;;;;;1.23;1.00;;;21.80;99.60;;;;;;6213204;28;20046;-81
2022/06/29 02:52:58;;;;;;;3.70;1.13;;;21.80;99.50;;;;;;6214232;28;20114;-80
2022/06/29 02:56:02;;;;;;;3.42;1.10;;;21.80;99.50;;;;;;6214123;28;20053;-81
2022/06/29 02:59:03;;;;;;;1.85;0.55;;;21.90;99.50;;;;;;6213847;28;20046;-81
2022/06/29 03:02:05;;;;;;;2.17;1.20;;;21.90;99.30;;;;;;6212899;28;20062;-80
2022/06/29 03:05:08;;;;;;;2.10;0.95;;;22.00;99.50;;;;;;6213269;28;20053;-80
2022/06/29 03:08:09;;;;;;;4.70;0.98;;;22.00;99.10;;;;;;6212776;28;20526;-80
2022/06/29 03:11:12;;;;;;;2.95;1.23;;;22.00;99.00;;;;;;6213470;28;20050;-80
2022/06/29 03:14:14;;;;;;;2.53;1.23;;;22.00;98.90;;;;;;6213445;28;20054;-80
2022/06/29 03:17:16;;;;;;;3.08;1.15;;;22.00;98.70;;;;;;6214062;28;20052;-80
2022/06/29 03:20:18;;;;;;;2.35;1.45;;;22.00;98.60;;;;;;6211405;28;20046;-80
2022/06/29 03:23:19;;;;;;;1.90;1.08;;;22.00;98.60;;;;;;6212354;28;20061;-81
2022/06/29 03:26:22;;;;;;;2.00;1.35;;;21.90;98.60;;;;;;6211982;28;20049;-81
2022/06/29 03:29:24;;;;;;;4.70;1.02;;;21.80;98.70;;;;;;6212953;28;20137;-81
2022/06/29 03:32:26;;;;;;;2.42;1.23;;;21.80;98.90;;;;;;6214277;28;20056;-81
2022/06/29 03:35:28;;;;;;;7.03;1.63;;;21.70;99.00;;;;;;6214875;28;20047;-82
2022/06/29 03:38:29;;;;;;;5.30;1.27;;;21.60;99.10;;;;;;6213804;28;20495;-81
2022/06/29 03:41:32;;;;;;;7.40;1.27;;;21.60;99.40;;;;;;6214455;28;20054;-81
2022/06/29 03:44:34;;;;;;;14.55;1.70;;;21.60;99.40;;;;;;6214291;28;20057;-81
2022/06/29 03:47:36;;;;;;;4.97;1.10;;;21.60;99.40;;;;;;6213564;28;20142;-80
2022/06/29 03:50:38;;;;;;;1.85;0.80;;;21.60;99.40;;;;;;6212004;28;20054;-83
2022/06/29 03:53:39;;;;;;;3.45;1.48;;;21.70;99.40;;;;;;6213757;28;20138;-80
2022/06/29 03:56:42;;;;;;;2.85;1.23;;;21.60;99.40;;;;;;6212600;28;20121;-81
2022/06/29 03:59:44;;;;;;;7.38;1.40;;;21.70;99.40;;;;;;6211547;28;20054;-82
2022/06/29 04:02:46;;;;;;;3.28;1.05;;;21.60;99.30;;;;;;6211835;28;20455;-81
2022/06/29 04:05:48;;;;;;;1.85;1.27;;;21.70;99.40;;;;;;6212045;28;20051;-81
2022/06/29 04:08:50;;;;;;;1.90;1.05;;;21.80;99.70;;;;;;6211644;28;20042;-82
2022/06/29 04:11:53;;;;;;;5.20;1.05;;;21.80;99.40;;;;;;6210727;28;20050;-81
2022/06/29 04:14:55;;;;;;;10.88;1.75;;;21.80;99.30;;;;;;6212349;28;20054;-80
2022/06/29 04:17:57;;;;;;;6.18;1.33;;;21.80;99.30;;;;;;6210186;28;20054;-82
2022/06/29 04:21:07;;;;;;;5.07;1.35;;;21.70;99.20;;;;;;6212937;28;20054;-82
2022/06/29 04:24:09;;;;;;;3.95;1.42;;;21.70;99.30;;;;;;6212093;28;20054;-80
2022/06/29 04:27:13;;;;;;;2.17;1.63;;;21.70;99.30;;;;;;6211395;28;20045;-81
2022/06/29 04:30:14;;;;;;;1.95;1.30;;;21.70;99.30;;;;;;6211984;28;20060;-81
2022/06/29 04:33:16;;;;;;;3.15;1.65;;;21.80;99.60;;;;;;6212614;28;20507;-81
2022/06/29 04:36:18;;;;;;;2.05;1.70;;;21.80;99.70;;;;;;6211639;28;20042;-82
2022/06/29 04:39:20;;;;;;;3.22;1.50;;;21.80;99.60;;;;;;6211139;28;20042;-82
2022/06/29 04:42:23;;;;;;;4.32;1.40;;;21.90;99.50;;;;;;6212010;28;20062;-80
2022/06/29 04:48:44;;;;;;;2.00;1.30;;;21.80;99.50;;;;;;6212662;28;20435;-83
2022/06/29 04:51:46;;;;;;;2.97;1.30;;;21.90;99.40;;;;;;6215534;28;20508;-82
2022/06/29 04:54:48;;;;;;;6.65;1.38;;;22.10;99.20;;;;;;6216839;28;20046;-81
2022/06/29 04:57:51;;;;;;;3.33;1.10;;;22.20;98.70;;;;;;6215568;28;20057;-80
2022/06/29 05:00:53;;;;;;;2.17;0.95;;;22.40;98.40;;;;;;6215879;28;20057;-81
2022/06/29 05:03:56;;;;;;;2.38;1.20;;;22.60;98.00;;;;;;6216732;28;20061;-81
2022/06/29 05:06:57;;;;;;;5.53;1.35;;;22.80;97.30;;;;;;6217406;28;20468;-81
2022/06/29 05:09:59;;;;;;;3.50;1.33;;;23.00;96.70;;;;;;6213758;28;20054;-81
2022/06/29 05:13:02;;;;;;;2.67;1.85;;;23.20;95.90;;;;;;6215919;28;20114;-80
2022/06/29 05:16:04;;;;;;;5.90;1.70;;;23.50;95.60;;;;;;6217096;28;20046;-81
2022/06/29 05:19:06;;;;;;;11.82;1.75;;;23.80;95.10;;;;;;6216875;28;20050;-81
2022/06/29 05:22:08;;;;;;;3.35;1.73;;;24.20;94.60;;;;;;6216931;28;20060;-80
2022/06/29 05:25:10;;;;;;;2.97;1.83;;;24.60;93.70;;;;;;6217439;28;20391;-81
2022/06/29 05:28:13;;;;;;;2.05;1.25;;;24.90;93.00;;;;;;6217933;28;20050;-80
2022/06/29 05:31:17;;;;;;;2.22;1.58;;;25.20;92.40;;;;;;6216665;28;20050;-80
2022/06/29 05:34:19;;;;;;;2.17;1.42;;;25.30;91.90;;;;;;6216683;28;20095;-80
2022/06/29 05:37:21;;;;;;;3.58;1.67;;;25.50;91.40;;;;;;6219522;28;20343;-80
2022/06/29 05:40:22;;;;;;;3.40;1.40;;;26.10;90.90;;;;;;6216994;28;20051;-81
2022/06/29 05:43:25;;;;;;;3.58;1.80;;;27.40;88.90;;;;;;6219166;28;20057;-80
2022/06/29 05:46:27;;;;;;;2.85;1.30;;;29.90;80.60;;;;;;6219086;28;20050;-81
2022/06/29 05:49:29;;;;;;;5.55;1.38;;;32.60;71.60;;;;;;6220498;28;20050;-82
2022/06/29 05:52:30;;;;;;;3.05;1.30;;;34.80;62.30;;;;;;6219905;28;20110;-81
2022/06/29 05:55:32;;;;;;;5.70;1.88;;;36.40;56.00;;;;;;6219667;28;20050;-82
2022/06/29 05:58:35;;;;;;;6.25;1.40;;;37.70;51.00;;;;;;6216427;28;20046;-81
2022/06/29 06:01:37;;;;;;;4.80;1.33;;;38.60;48.00;;;;;;6220424;28;20054;-81
2022/06/29 06:04:39;;;;;;;1.80;1.05;;;39.10;46.00;;;;;;6220120;28;20050;-81
2022/06/29 06:07:40;;;;;;;1.70;1.10;;;39.80;44.30;;;;;;6219930;28;20113;-81
2022/06/29 06:10:42;;;;;;;4.40;1.40;;;40.40;42.70;;;;;;6219233;28;20046;-80
2022/06/29 06:13:45;;;;;;;2.60;0.90;;;40.90;41.40;;;;;;6219850;28;20110;-80
2022/06/29 06:16:47;;;;;;;3.80;1.67;;;41.40;40.40;;;;;;6212813;28;20523;-81
2022/06/29 06:19:49;;;;;;;4.07;1.25;;;41.50;39.20;;;;;;6215742;28;20053;-82
2022/06/29 06:22:51;;;;;;;2.33;1.45;;;41.50;38.80;;;;;;6216867;28;20057;-81
2022/06/29 06:25:52;;;;;;;6.55;1.27;;;41.60;38.90;;;;;;6216177;28;20133;-79
2022/06/29 06:28:55;;;;;;;2.42;1.17;;;42.00;38.30;;;;;;6215733;28;20048;-81
2022/06/29 06:31:57;;;;;;;5.13;1.20;;;42.40;37.50;;;;;;6214816;28;20046;-80
2022/06/29 06:34:59;;;;;;;8.98;1.23;;;42.60;37.30;;;;;;6216813;28;20050;-82
2022/06/29 06:38:01;;;;;;;4.97;1.75;;;42.50;37.10;;;;;;6216406;28;20046;-81
2022/06/29 06:44:24;;;;;;;1.83;1.35;;;42.30;37.20;;;;;;6216066;28;20043;-81
2022/06/29 06:47:25;;;;;;;2.30;1.08;;;42.00;37.40;;;;;;6217074;28;20101;-82
2022/06/29 06:50:27;;;;;;;1.65;0.90;;;41.90;37.60;;;;;;6218076;28;20056;-80
2022/06/29 06:53:29;;;;;;;2.17;1.23;;;41.90;37.40;;;;;;6217975;28;20053;-80
2022/06/29 06:56:31;;;;;;;2.20;1.08;;;41.90;37.10;;;;;;6218649;28;20050;-81
2022/06/29 06:59:34;;;;;;;2.58;1.10;;;41.70;37.70;;;;;;6217044;28;20468;-81
2022/06/29 07:02:38;;;;;;;2.78;0.82;;;41.80;36.80;;;;;;6296865;23;20052;-82
2022/06/29 07:05:39;;;;;;;3.97;1.27;;;41.70;36.90;;;;;;6290159;28;20053;-81
2022/06/29 07:08:41;;;;;;;2.58;1.33;;;41.40;36.80;;;;;;6290940;28;20051;-81
2022/06/29 07:11:44;;;;;;;1.95;0.93;;;40.00;37.80;;;;;;6291013;28;20045;-81
2022/06/29 07:14:47;;;;;;;2.65;1.02;;;39.40;39.60;;;;;;6291401;28;20071;-81
2022/06/29 07:17:48;;;;;;;1.70;1.00;;;39.80;39.40;;;;;;6289542;28;20054;-80
2022/06/29 07:20:50;;;;;;;1.02;0.90;;;39.20;39.90;;;;;;6286561;28;20045;-81
2022/06/29 07:23:52;;;;;;;6.63;1.05;;;37.90;41.00;;;;;;6284146;28;20499;-83
2022/06/29 07:26:56;;;;;;;1.60;1.02;;;36.70;43.00;;;;;;6264835;28;20037;-85
2022/06/29 07:29:59;;;;;;;1.63;1.15;;;36.00;43.70;;;;;;6263003;28;20117;-83
2022/06/29 07:33:01;;;;;;;1.70;1.35;;;35.30;44.80;;;;;;6256202;28;20053;-83
2022/06/29 07:36:03;;;;;;;3.88;1.05;;;34.40;46.40;;;;;;6228435;28;20049;-82
2022/06/29 07:39:05;;;;;;;2.60;0.85;;;34.20;47.10;;;;;;6257172;28;20060;-83
2022/06/29 07:42:07;;;;;;;1.52;1.10;;;34.10;47.30;;;;;;6267021;28;20045;-82
2022/06/29 07:45:11;;;;;;;2.88;1.10;;;34.90;46.90;;;;;;6264081;28;20045;-84
2022/06/29 07:48:13;;;;;;;4.80;0.90;;;35.70;45.60;;;;;;6255487;28;20654;-85
2022/06/29 07:51:15;;;;;;;2.00;1.00;;;35.30;45.90;;;;;;6252605;28;20133;-84
2022/06/29 07:54:17;;;;;;;3.00;1.20;;;34.00;47.70;;;;;;6255026;28;20052;-80
2022/06/29 07:57:19;;;;;;;3.65;1.40;;;32.50;50.90;;;;;;6254148;28;20041;-82
2022/06/29 08:00:22;;;;;;;4.55;1.40;;;31.60;53.50;;;;;;6251934;28;20053;-84
2022/06/29 08:03:24;;;;;;;1.23;1.00;;;31.10;55.40;;;;;;6252919;28;20418;-84
2022/06/29 08:06:26;;;;;;;6.10;1.85;;;30.80;57.00;;;;;;6252792;28;20053;-83
2022/06/29 08:09:28;;;;;;;5.25;1.63;;;30.40;56.90;;;;;;6255107;28;20052;-83
2022/06/29 08:12:30;;;;;;;3.35;1.50;;;30.20;58.30;;;;;;6267281;28;20425;-82
2022/06/29 08:15:33;;;;;;;4.63;1.25;;;30.10;58.20;;;;;;6275774;28;20051;-81
2022/06/29 08:18:35;;;;;;;3.85;1.25;;;29.70;59.10;;;;;;6277815;28;20067;-83
2022/06/29 08:21:37;;;;;;;9.20;1.50;;;29.70;59.90;;;;;;6277137;28;20051;-82
2022/06/29 08:24:38;;;;;;;4.45;1.27;;;29.40;60.40;;;;;;6276501;28;20045;-83
2022/06/29 08:27:41;;;;;;;3.00;1.10;;;29.20;61.20;;;;;;6272196;28;20411;-81
2022/06/29 08:30:44;;;;;;;5.25;2.13;;;29.10;62.00;;;;;;6265612;28;20055;-84
2022/06/29 08:33:46;;;;;;;4.22;1.17;;;29.00;62.50;;;;;;6280176;28;20055;-83
2022/06/29 08:36:47;;;;;;;2.17;1.13;;;28.90;62.40;;;;;;6279609;28;20077;-83
2022/06/29 08:39:49;;;;;;;2.65;1.20;;;29.00;62.80;;;;;;6278872;28;20049;-82
2022/06/29 08:42:53;;;;;;;5.60;1.40;;;28.90;63.50;;;;;;6273025;28;20045;-81
2022/06/29 08:45:57;;;;;;;3.03;1.58;;;28.90;63.40;;;;;;6277373;28;20045;-84
2022/06/29 08:48:59;;;;;;;2.40;1.55;;;28.90;63.90;;;;;;6282832;28;20087;-83
2022/06/29 08:52:05;;;;;;;5.25;1.45;;;29.00;64.10;;;;;;6286113;28;20045;-83
2022/06/29 08:55:09;;;;;;;4.93;1.73;;;28.90;63.10;;;;;;6286918;28;20049;-83
2022/06/29 08:58:17;;;;;;;2.90;1.38;;;28.90;63.50;;;;;;6285270;28;20053;-82
2022/06/29 09:01:20;;;;;;;7.13;2.05;;;28.80;64.20;;;;;;6285253;28;20112;-82
2022/06/29 09:04:22;;;;;;;3.92;1.60;;;28.70;64.40;;;;;;6285233;28;20117;-82
2022/06/29 09:07:24;;;;;;;1.90;1.35;;;28.70;64.70;;;;;;6286184;28;20059;-83
2022/06/29 09:10:30;;;;;;;6.10;1.23;;;28.80;65.30;;;;;;6287786;28;20051;-81
2022/06/29 09:13:32;;;;;;;4.28;1.92;;;29.10;65.30;;;;;;6278623;28;20133;-82
2022/06/29 09:16:56;;;;;;;6.70;1.77;;;29.60;64.10;;;;;;6287231;28;20163;-81
2022/06/29 09:19:58;;;;;;;4.63;1.40;;;30.10;63.30;;;;;;6287204;28;20086;-81
2022/06/29 09:23:00;;;;;;;6.25;1.67;;;30.20;61.50;;;;;;6286430;28;20055;-81
2022/06/29 09:26:02;;;;;;;7.10;1.80;;;30.30;61.40;;;;;;6287269;28;20053;-81
2022/06/29 09:29:19;;;;;;;6.13;1.48;;;30.20;61.80;;;;;;6278613;28;20035;-81
2022/06/29 09:32:25;;;;;;;3.22;1.23;;;30.20;61.40;;;;;;6282678;28;20045;-81
2022/06/29 09:35:26;;;;;;;2.67;1.08;;;30.20;60.10;;;;;;6288170;28;20041;-82
2022/06/29 09:38:28;;;;;;;4.22;1.40;;;30.00;60.50;;;;;;6287530;28;20045;-81
2022/06/29 09:41:30;;;;;;;2.10;1.00;;;30.00;60.90;;;;;;6288129;28;20291;-82
2022/06/29 09:44:32;;;;;;;2.08;0.98;;;29.90;60.10;;;;;;6280298;28;20065;-83
2022/06/29 09:47:39;;;;;;;1.77;1.48;;;30.00;60.20;;;;;;6288032;28;20055;-80
2022/06/29 09:50:41;;;;;;;3.50;1.05;;;30.00;59.70;;;;;;6288436;28;20417;-81
2022/06/29 09:53:44;;;;;;;3.75;1.77;;;29.90;59.60;;;;;;6288765;28;20048;-81
2022/06/29 09:56:47;;;;;;;1.63;0.93;;;29.80;60.40;;;;;;6288836;28;20052;-83
2022/06/29 10:03:13;;;;;;;4.68;1.48;;;29.90;59.90;;;;;;6291477;28;20045;-82
2022/06/29 10:06:17;;;;;;;4.35;1.00;;;30.00;59.80;;;;;;6290283;28;20045;-83
2022/06/29 10:09:20;;;;;;;4.20;1.17;;;30.00;60.30;;;;;;6291147;28;20100;-82
2022/06/29 10:15:57;;;;;;;;;;;30.20;58.60;;;;;;6288699;28;20045;-82
2022/06/29 10:19:24;;;;;;;6.40;1.48;;;30.30;58.70;;;;;;6293267;28;19921;-82
2022/06/29 10:22:29;;;;;;;7.33;1.23;;;30.50;57.90;;;;;;6293664;28;20083;-82
2022/06/29 10:25:31;;;;;;;2.25;0.95;;;30.60;57.90;;;;;;6297410;28;20048;-81
2022/06/29 10:28:33;;;;;;;2.25;1.23;;;31.00;57.70;;;;;;6298200;28;20502;-82
2022/06/29 10:32:07;;;;;;;2.42;1.08;;;31.30;56.30;;;;;;6285768;28;20056;-84
2022/06/29 10:35:11;;;;;;;2.40;0.82;;;31.50;54.70;;;;;;6269563;28;20056;-83
2022/06/29 10:38:12;;;;;;;3.17;0.90;;;31.70;53.80;;;;;;6268534;28;20046;-81
2022/06/29 10:44:59;;;;;;;2.95;0.95;;;32.00;53.50;;;;;;6274754;28;20060;-84
2022/06/29 10:48:15;;;;;;;1.45;1.02;;;32.20;54.40;;;;;;6265334;28;20053;-84
2022/06/29 10:51:20;;;;;;;2.65;1.17;;;32.70;54.40;;;;;;6263235;28;20068;-84
2022/06/29 10:54:23;;;;;;;4.32;1.08;;;33.10;54.00;;;;;;6258432;28;20081;-84
2022/06/29 10:57:26;;;;;;;2.88;0.98;;;33.50;52.90;;;;;;6258097;28;20123;-84
2022/06/29 11:00:30;;;;;;;3.85;1.02;;;33.10;52.00;;;;;;6260838;28;20053;-82
2022/06/29 11:03:31;;;;;;;2.00;0.80;;;33.00;52.40;;;;;;6262055;28;20128;-83
2022/06/29 11:13:21;;;;;;;1.35;0.80;;;33.80;48.90;;;;;;6269440;28;20041;-83
2022/06/29 11:16:32;;;;;;;4.25;0.90;;;34.20;48.40;;;;;;6261974;28;20538;-82
2022/06/29 11:19:50;;;;;;;1.52;0.88;;;34.40;47.10;;;;;;6262386;28;20250;-83
2022/06/29 11:22:54;;;;;;;5.47;0.90;;;34.50;46.90;;;;;;6244742;28;20652;-81
2022/06/29 11:25:56;;;;;;;5.38;1.27;;;34.50;46.00;;;;;;6264026;28;20144;-84
2022/06/29 11:28:58;;;;;;;1.23;0.80;;;34.50;45.50;;;;;;6262689;28;20196;-84
2022/06/29 11:32:04;;;;;;;1.83;0.60;;;34.30;44.90;;;;;;6267325;28;20430;-83
2022/06/29 11:35:07;;;;;;;1.60;0.50;;;34.40;45.10;;;;;;6287172;28;20224;-83
2022/06/29 11:38:11;;;;;;;1.98;0.75;;;34.50;45.10;;;;;;6284164;28;20059;-83
2022/06/29 11:41:14;;;;;;;1.35;0.60;;;34.60;45.00;;;;;;6283625;28;20712;-83
2022/06/29 11:44:27;;;;;;;4.00;0.93;;;34.90;44.80;;;;;;6265186;28;20064;-83
2022/06/29 11:47:29;;;;;;;2.17;0.55;;;35.10;44.70;;;;;;6256773;28;20064;-82
2022/06/29 11:50:31;;;;;;;2.60;0.60;;;35.20;44.70;;;;;;6259981;28;20053;-84
2022/06/29 11:53:38;;;;;;;5.00;0.73;;;35.40;43.90;;;;;;6260360;28;20073;-82
2022/06/29 11:56:43;;;;;;;1.83;0.65;;;35.60;43.40;;;;;;6253998;28;20390;-82
2022/06/29 11:59:46;;;;;;;3.30;0.90;;;35.70;43.70;;;;;;6253694;28;20049;-83
2022/06/29 12:02:59;;;;;;;4.22;0.80;;;35.70;43.90;;;;;;6259186;28;20049;-85
2022/06/29 12:06:02;;;;;;;2.88;0.88;;;35.60;44.60;;;;;;6263529;28;20120;-83
2022/06/29 12:09:05;;;;;;;1.75;0.90;;;35.40;44.80;;;;;;6259278;28;20137;-82
2022/06/29 12:12:21;;;;;;;3.40;1.10;;;35.00;45.60;;;;;;6268855;28;20123;-86
2022/06/29 12:15:23;;;;;;;2.80;0.88;;;35.00;45.10;;;;;;6281949;28;20057;-85
2022/06/29 12:18:24;;;;;;;1.20;0.93;;;35.00;44.80;;;;;;6289764;28;20065;-85
2022/06/29 12:21:26;;;;;;;0.88;0.70;;;35.10;43.80;;;;;;6287681;28;20049;-84
2022/06/29 12:24:29;;;;;;;3.67;0.80;;;35.30;44.20;;;;;;6288687;28;20051;-84
2022/06/29 12:27:31;;;;;;;5.75;1.50;;;35.40;44.10;;;;;;6286535;28;20048;-83
2022/06/29 12:30:34;;;;;;;3.85;0.60;;;35.80;44.30;;;;;;6286969;28;20079;-83
2022/06/29 12:33:36;;;;;;;2.30;0.85;;;36.10;43.50;;;;;;6277477;28;20049;-84
2022/06/29 12:36:37;;;;;;;4.47;1.00;;;36.30;43.40;;;;;;6283511;28;20053;-84
2022/06/29 12:39:41;;;;;;;2.25;0.80;;;36.40;42.60;;;;;;6279903;28;20051;-84
2022/06/29 12:42:42;;;;;;;3.13;0.60;;;36.30;42.60;;;;;;6272474;28;20055;-82
2022/06/29 12:45:45;;;;;;;0.98;0.57;;;36.20;43.00;;;;;;6259990;28;20045;-84
2022/06/29 12:48:47;;;;;;;1.23;0.60;;;36.00;43.40;;;;;;6255011;28;20072;-84
2022/06/29 12:51:49;;;;;;;2.67;0.88;;;35.80;42.90;;;;;;6258018;28;20052;-83
2022/06/29 12:54:52;;;;;;;5.35;1.35;;;35.80;41.80;;;;;;6256058;28;20046;-84
2022/06/29 12:58:05;;;;;;;2.22;0.80;;;35.60;42.90;;;;;;6258819;28;20050;-85
2022/06/29 13:01:13;;;;;;;3.65;1.13;;;35.50;42.90;;;;;;6260046;28;20057;-85
2022/06/29 13:04:14;;;;;;;4.05;0.85;;;35.70;43.40;;;;;;6257792;28;20045;-84
2022/06/29 13:07:16;;;;;;;1.67;0.65;;;35.80;43.30;;;;;;6258765;28;20049;-82
2022/06/29 13:10:19;;;;;;;1.45;0.60;;;35.60;42.90;;;;;;6259245;28;20052;-83
2022/06/29 13:13:21;;;;;;;1.67;0.77;;;35.60;43.00;;;;;;6266029;28;20047;-83
2022/06/29 13:16:24;;;;;;;2.45;0.95;;;35.80;42.90;;;;;;6259101;28;20072;-84
2022/06/29 13:19:26;;;;;;;1.73;0.88;;;35.80;42.10;;;;;;6257908;28;20046;-85
2022/06/29 13:22:36;;;;;;;1.70;0.77;;;35.60;42.90;;;;;;6258534;28;20056;-84
2022/06/29 13:53:22;;;;;;;4.05;1.17;;;34.30;43.90;;;;;;5986279;29;20120;-84
2022/06/29 14:00:15;;;;;;;2.10;0.77;;;33.60;44.90;;;;;;6090709;29;20493;-85
2022/06/29 14:03:19;;;;;;;4.15;0.77;;;33.30;46.90;;;;;;6237417;28;20490;-84
2022/06/29 14:06:21;;;;;;;4.53;0.85;;;33.40;46.00;;;;;;6264435;28;20109;-85
2022/06/29 14:09:24;;;;;;;1.38;0.52;;;33.30;46.20;;;;;;6264197;28;20157;-83
2022/06/29 14:12:26;;;;;;;1.05;0.60;;;33.30;46.30;;;;;;6262889;28;20096;-83
2022/06/29 14:15:31;;;;;;;1.73;0.82;;;33.60;46.00;;;;;;6273065;28;20046;-84
2022/06/29 14:18:33;;;;;;;2.05;0.90;;;33.80;45.10;;;;;;6263886;28;20095;-85
2022/06/29 14:21:35;;;;;;;1.65;0.60;;;33.90;45.70;;;;;;6264830;28;20053;-85
2022/06/29 14:24:38;;;;;;;3.08;0.70;;;34.10;45.80;;;;;;6264696;28;20061;-83
2022/06/29 14:27:46;;;;;;;2.50;0.70;;;34.30;45.20;;;;;;6262619;28;20567;-83
2022/06/29 14:30:48;;;;;;;2.75;1.02;;;34.20;44.90;;;;;;6267514;28;20064;-85
2022/06/29 14:33:51;;;;;;;2.70;0.50;;;34.00;44.70;;;;;;6262448;28;20077;-85
2022/06/29 14:36:53;;;;;;;3.65;0.60;;;33.80;44.60;;;;;;6279473;28;20260;-85
2022/06/29 14:39:56;;;;;;;4.68;0.30;;;33.70;45.20;;;;;;6285829;28;20055;-82
2022/06/29 14:42:58;;;;;;;1.73;0.57;;;33.80;45.90;;;;;;6279034;28;20041;-84
2022/06/29 14:50:08;;;;;;;2.80;0.70;;;33.80;45.30;;;;;;6209711;28;20098;-84
2022/06/29 14:53:34;;;;;;;2.28;0.50;;;33.90;44.80;;;;;;6292691;28;20036;-85
2022/06/29 15:20:15;;;;;;;0.60;0.45;;;34.70;42.40;;;;;;6164562;28;20111;-86
2022/06/29 15:23:16;;;;;;;1.27;0.40;;;34.70;41.90;;;;;;6273201;28;20049;-86
2022/06/29 15:26:18;;;;;;;3.53;0.70;;;34.70;42.30;;;;;;6273639;28;20026;-85
2022/06/29 15:29:20;;;;;;;1.52;0.68;;;34.80;42.80;;;;;;6273646;28;20077;-85
2022/06/29 15:32:22;;;;;;;5.95;0.60;;;35.00;42.50;;;;;;6273840;28;20079;-84
2022/06/29 15:38:47;;;;;;;6.20;0.52;;;35.10;41.90;;;;;;6277075;28;20070;-84
2022/06/29 15:41:49;;;;;;;3.38;0.80;;;35.20;41.70;;;;;;6266333;28;20041;-86
2022/06/29 15:44:50;;;;;;;1.67;0.50;;;35.20;41.70;;;;;;6271991;28;20454;-87
2022/06/29 15:47:52;;;;;;;2.15;0.82;;;35.20;41.80;;;;;;6286967;28;20095;-86
2022/06/29 15:50:55;;;;;;;3.17;0.95;;;35.10;42.80;;;;;;6295728;28;20048;-84
2022/06/29 15:57:17;;;;;;;6.15;0.63;;;35.00;42.20;;;;;;6278798;28;20044;-85
2022/06/29 16:00:20;;;;;;;3.30;0.95;;;35.10;42.10;;;;;;6289839;28;20124;-85
2022/06/29 16:03:21;;;;;;;1.00;0.50;;;35.00;41.70;;;;;;6288954;28;20060;-85
2022/06/29 16:06:24;;;;;;;3.10;0.68;;;35.00;41.80;;;;;;6290849;28;20033;-85
2022/06/29 16:09:26;;;;;;;2.83;0.70;;;35.00;42.40;;;;;;6299356;28;20052;-85
2022/06/29 16:12:28;;;;;;;6.65;0.70;;;35.00;42.80;;;;;;6292255;28;20060;-86
2022/06/29 16:15:30;;;;;;;1.15;0.43;;;34.90;42.40;;;;;;6288958;28;20475;-86
2022/06/29 16:18:32;;;;;;;3.58;0.63;;;34.80;41.50;;;;;;6297407;28;20100;-84
2022/06/29 16:21:35;;;;;;;3.78;1.08;;;34.80;41.60;;;;;;6281838;28;20048;-84
2022/06/29 16:24:37;;;;;;;1.65;0.70;;;34.70;41.90;;;;;;6296050;28;20073;-83
2022/06/29 16:27:40;;;;;;;1.58;0.75;;;34.70;42.30;;;;;;6295181;28;20520;-84
2022/06/29 16:30:42;;;;;;;2.80;0.50;;;34.70;42.80;;;;;;6291773;28;20049;-84
2022/06/29 16:33:44;;;;;;;3.17;0.55;;;34.50;42.50;;;;;;6291592;28;20029;-86
2022/06/29 16:36:47;;;;;;;0.80;0.40;;;34.50;42.60;;;;;;6289129;28;20054;-86
2022/06/29 16:39:51;;;;;;;1.13;0.60;;;34.50;42.90;;;;;;6290939;28;20098;-86
2022/06/29 16:43:45;;;;;;;3.80;0.68;;;34.40;43.10;;;;;;6284919;28;20065;-86
2022/06/29 16:46:48;;;;;;;3.22;0.75;;;34.30;43.20;;;;;;6260018;28;20049;-85
2022/06/29 16:49:50;;;;;;;1.63;0.47;;;34.20;44.20;;;;;;6272182;28;20073;-85
2022/06/29 16:52:53;;;;;;;1.65;0.65;;;34.20;44.40;;;;;;6253074;23;20065;-80
2022/06/29 16:55:54;;;;;;;5.47;0.60;;;34.20;43.60;;;;;;6252869;28;20061;-80
2022/06/29 16:58:56;;;;;;;2.85;0.80;;;34.20;43.70;;;;;;6251993;28;20414;-80
2022/06/29 17:01:59;;;;;;;1.58;0.85;;;34.00;43.40;;;;;;6249619;28;20056;-80
2022/06/29 17:05:00;;;;;;;0.90;0.73;;;33.90;43.40;;;;;;6228227;28;20073;-79
2022/06/29 17:08:04;;;;;;;3.55;1.10;;;33.80;43.40;;;;;;6228999;28;20054;-81
2022/06/29 17:11:06;;;;;;;3.97;1.02;;;33.70;43.80;;;;;;6212742;28;20156;-79
2022/06/29 17:14:07;;;;;;;2.05;0.68;;;33.60;44.10;;;;;;6243424;28;20048;-79
2022/06/29 17:17:09;;;;;;;1.15;1.02;;;33.40;43.90;;;;;;6252987;28;20045;-79
2022/06/29 17:20:11;;;;;;;5.07;0.93;;;33.40;44.00;;;;;;6252236;28;20044;-80
2022/06/29 17:23:14;;;;;;;1.92;0.60;;;33.20;44.00;;;;;;6252352;28;20053;-80
2022/06/29 17:26:16;;;;;;;9.35;0.98;;;33.00;44.40;;;;;;6243039;28;20045;-79
2022/06/29 17:29:18;;;;;;;3.67;1.50;;;32.90;44.70;;;;;;6226800;28;20049;-80